Time;durP1;ratioP1;P1;durP2;ratioP2;P2;SDS_P1;SDS_P2;PMS_P1;PMS_P2;Temp;Humidity;BMP_temperature;BMP_pressure;BME280_temperature;BME280_humidity;BME280_pressure;Samples;Min_cycle;Max_cycle;Signal;HPM_P1;HPM_P2
2021/12/21 00:00:11;;;;;;;8.17;4.30;;;-2.10;99.90;;;;;;4163620;34;20202;-66
2021/12/21 00:03:34;;;;;;;10.27;4.93;;;-2.10;99.90;;;;;;4188897;34;20235;-66
2021/12/21 00:06:57;;;;;;;8.93;4.73;;;-2.10;99.90;;;;;;4466530;32;20223;-67
2021/12/21 00:18:50;;;;;;;10.67;5.30;;;-2.00;99.90;;;;;;4360247;33;20183;-67
2021/12/21 00:30:02;;;;;;;9.83;5.00;;;-2.10;99.90;;;;;;4324502;33;20168;-67
2021/12/21 00:49:13;;;;;;;10.20;4.57;;;-1.60;99.90;;;;;;4285440;33;20177;-68
2021/12/21 00:51:56;;;;;;;9.57;4.57;;;-1.50;99.90;;;;;;4268466;33;20186;-68
2021/12/21 00:56:14;;;;;;;;;;;;;;;;;;;;;
2021/12/21 00:59:05;;;;;;;13.00;5.17;;;-1.50;99.90;;;;;;4263887;33;20276;-67
2021/12/21 01:02:38;;;;;;;10.43;5.27;;;-1.50;99.90;;;;;;4431538;32;20227;-68
2021/12/21 01:12:59;;;;;;;10.93;5.57;;;-1.20;99.90;;;;;;4358655;32;20500;-68
2021/12/21 01:18:54;;;;;;;11.50;5.53;;;-1.20;99.90;;;;;;4414340;32;20598;-68
2021/12/21 01:25:09;;;;;;;11.73;5.80;;;-1.30;99.90;;;;;;4397729;32;20178;-68
2021/12/21 01:28:24;;;;;;;11.93;5.83;;;-1.30;99.90;;;;;;4407100;32;20171;-68
2021/12/21 01:31:53;;;;;;;10.10;5.20;;;-1.40;99.90;;;;;;4407746;32;20519;-67
2021/12/21 01:35:14;;;;;;;9.53;5.10;;;-1.40;99.90;;;;;;4436228;32;20219;-67
2021/12/21 01:50:11;;;;;;;11.23;5.00;;;-1.40;99.90;;;;;;4217012;33;20172;-70
2021/12/21 01:53:02;;;;;;;7.70;4.97;;;-1.50;99.90;;;;;;4281682;33;20200;-68
2021/12/21 01:56:08;;;;;;;9.30;5.10;;;-1.50;99.90;;;;;;4329299;33;20212;-68
2021/12/21 02:03:47;;;;;;;8.87;4.70;;;-1.60;99.90;;;;;;4257311;33;20176;-68
2021/12/21 02:06:49;;;;;;;8.83;4.47;;;-1.60;99.90;;;;;;4255754;33;20210;-68
2021/12/21 02:10:19;;;;;;;8.47;4.30;;;-1.60;99.90;;;;;;4243373;33;20237;-68
2021/12/21 02:21:52;;;;;;;8.03;4.17;;;-1.60;99.90;;;;;;4229006;33;20303;-68
2021/12/21 02:31:37;;;;;;;6.23;3.17;;;-1.60;99.90;;;;;;4222922;33;20210;-67
2021/12/21 02:34:27;;;;;;;5.17;3.13;;;-1.70;99.90;;;;;;4218580;33;20209;-67
2021/12/21 02:37:24;;;;;;;8.20;3.20;;;-1.70;99.90;;;;;;4218053;33;20190;-67
2021/12/21 02:41:08;;;;;;;7.73;3.40;;;-1.80;99.90;;;;;;4173915;34;20256;-67
2021/12/21 02:43:56;;;;;;;;;;;;;;;;;;;;;
2021/12/21 02:51:07;;;;;;;5.80;3.07;;;-2.10;99.90;;;;;;4177552;34;20580;-68
2021/12/21 02:54:25;;;;;;;5.80;3.10;;;-2.10;99.90;;;;;;4163377;34;20157;-68
2021/12/21 02:57:17;;;;;;;7.03;3.47;;;-2.10;99.90;;;;;;4449829;32;20219;-69
2021/12/21 03:00:16;;;;;;;8.00;3.60;;;-2.00;99.90;;;;;;4436003;32;20146;-69
2021/12/21 03:03:54;;;;;;;7.97;3.87;;;-2.10;99.90;;;;;;4375531;32;20186;-68
2021/12/21 03:09:58;;;;;;;6.90;3.27;;;-2.10;99.90;;;;;;4324596;33;20592;-69
2021/12/21 03:15:32;;;;;;;5.40;2.97;;;-2.10;99.90;;;;;;4375991;32;20201;-69
2021/12/21 03:18:17;;;;;;;7.07;3.40;;;-2.10;99.90;;;;;;4389268;32;20386;-69
2021/12/21 03:20:47;;;;;;;5.20;2.97;;;-2.10;99.90;;;;;;4375859;32;20209;-69
2021/12/21 03:23:18;;;;;;;6.37;2.90;;;-2.10;99.90;;;;;;4387602;32;20246;-69
2021/12/21 03:25:48;;;;;;;5.20;3.10;;;-2.10;99.90;;;;;;4383949;32;20519;-69
2021/12/21 03:28:26;;;;;;;7.97;2.97;;;-2.10;99.90;;;;;;4372843;32;20529;-69
2021/12/21 03:31:02;;;;;;;5.00;2.90;;;-2.10;99.90;;;;;;4388862;32;20147;-69
2021/12/21 03:33:55;;;;;;;4.63;3.10;;;-2.20;99.90;;;;;;4376165;32;20187;-71
2021/12/21 03:36:40;;;;;;;4.70;3.10;;;-2.20;99.90;;;;;;4378098;32;20225;-69
2021/12/21 03:39:19;;;;;;;7.33;3.17;;;-2.20;99.90;;;;;;4389672;32;20180;-69
2021/12/21 03:42:04;;;;;;;5.37;2.90;;;-2.30;99.90;;;;;;4397772;32;20206;-68
2021/12/21 03:44:48;;;;;;;5.03;3.07;;;-2.30;99.90;;;;;;4422307;32;20174;-69
2021/12/21 03:47:31;;;;;;;4.93;3.20;;;-2.30;99.90;;;;;;4423259;32;20206;-69
2021/12/21 03:50:27;;;;;;;7.47;3.00;;;-2.30;99.90;;;;;;4422799;32;20251;-69
2021/12/21 03:53:38;;;;;;;;;;;;;;;;;;;;;
2021/12/21 03:56:39;;;;;;;4.70;2.80;;;-2.40;99.90;;;;;;4375212;32;20237;-68
2021/12/21 03:59:18;;;;;;;4.43;2.50;;;-2.40;99.90;;;;;;4416527;32;20220;-69
2021/12/21 04:01:57;;;;;;;7.67;3.00;;;-2.40;99.90;;;;;;4420032;32;20163;-68
2021/12/21 04:04:33;;;;;;;4.97;2.53;;;-2.50;99.90;;;;;;4419491;32;20182;-69
2021/12/21 04:07:10;;;;;;;5.30;3.10;;;-2.40;99.90;;;;;;4424394;32;20578;-68
2021/12/21 04:09:48;;;;;;;5.47;3.20;;;-2.40;99.90;;;;;;4409050;32;20286;-68
2021/12/21 04:12:44;;;;;;;5.97;3.10;;;-2.40;99.90;;;;;;4409002;32;20209;-68
2021/12/21 04:15:24;;;;;;;6.67;3.30;;;-2.50;99.90;;;;;;4409076;32;20415;-68
2021/12/21 04:18:34;;;;;;;7.13;3.50;;;-2.50;99.90;;;;;;4409626;32;20218;-68
2021/12/21 04:21:12;;;;;;;6.77;3.63;;;-2.70;99.90;;;;;;4409614;32;20172;-68
2021/12/21 04:23:46;;;;;;;5.40;3.63;;;-2.90;99.90;;;;;;4410351;32;20230;-68
2021/12/21 04:26:28;;;;;;;5.80;3.50;;;-2.80;99.90;;;;;;4408668;32;20494;-68
2021/12/21 04:29:10;;;;;;;4.97;2.93;;;-2.90;99.90;;;;;;4407997;32;20214;-68
2021/12/21 04:31:48;;;;;;;4.80;2.93;;;-2.90;99.90;;;;;;4409062;32;20205;-68
2021/12/21 04:34:18;;;;;;;6.97;2.97;;;-3.00;99.90;;;;;;4409360;32;20175;-68
2021/12/21 04:36:48;;;;;;;5.13;2.93;;;-3.10;99.90;;;;;;4409719;32;20195;-68
2021/12/21 04:39:42;;;;;;;3.43;2.70;;;-3.10;99.90;;;;;;4408717;32;20193;-69
2021/12/21 04:42:23;;;;;;;6.13;2.70;;;-3.20;99.90;;;;;;4408724;32;20211;-68
2021/12/21 04:45:01;;;;;;;3.53;2.50;;;-3.30;99.90;;;;;;4409148;32;20187;-68
2021/12/21 04:47:36;;;;;;;4.77;2.87;;;-3.40;99.90;;;;;;4408650;32;20260;-68
2021/12/21 04:50:08;;;;;;;5.03;2.90;;;-3.40;99.90;;;;;;4410118;32;20171;-69
2021/12/21 04:52:54;;;;;;;4.70;2.83;;;-3.50;99.90;;;;;;4417879;32;20394;-68
2021/12/21 04:55:34;;;;;;;5.57;3.07;;;-3.50;99.90;;;;;;4414115;32;20221;-68
2021/12/21 04:58:22;;;;;;;5.27;2.60;;;-3.50;99.90;;;;;;4412668;32;20201;-68
2021/12/21 05:00:56;;;;;;;3.97;2.53;;;-3.60;99.90;;;;;;4412267;32;20194;-69
2021/12/21 05:03:35;;;;;;;5.33;2.67;;;-3.50;99.90;;;;;;4411676;32;20178;-68
2021/12/21 05:06:06;;;;;;;5.50;2.27;;;-3.60;99.90;;;;;;4410350;32;20271;-69
2021/12/21 05:08:39;;;;;;;3.20;2.30;;;-3.60;99.90;;;;;;4410715;32;20217;-68
2021/12/21 05:11:34;;;;;;;5.30;2.50;;;-3.60;99.90;;;;;;4410733;32;20179;-68
2021/12/21 05:14:11;;;;;;;2.87;2.07;;;-3.60;99.90;;;;;;4425350;32;20144;-69
2021/12/21 05:16:42;;;;;;;2.87;2.27;;;-3.60;99.90;;;;;;4410638;32;20179;-68
2021/12/21 05:19:12;;;;;;;2.80;1.90;;;-3.60;99.90;;;;;;4410092;32;20293;-68
2021/12/21 05:22:10;;;;;;;3.87;2.30;;;-3.60;99.90;;;;;;4411202;32;20201;-68
2021/12/21 05:24:48;;;;;;;4.47;2.20;;;-3.70;99.90;;;;;;4422503;32;20178;-68
2021/12/21 05:27:17;;;;;;;3.40;2.07;;;-3.90;99.90;;;;;;4411419;32;20183;-68
2021/12/21 05:29:51;;;;;;;4.87;2.57;;;-3.90;99.90;;;;;;4425481;32;20218;-68
2021/12/21 05:32:22;;;;;;;5.07;2.13;;;-4.10;99.90;;;;;;4424860;32;20131;-68
2021/12/21 05:34:53;;;;;;;3.83;2.20;;;-4.00;99.90;;;;;;4410084;32;20208;-68
2021/12/21 05:37:23;;;;;;;3.47;2.23;;;-4.00;99.90;;;;;;4409427;32;20225;-68
2021/12/21 05:40:18;;;;;;;4.47;2.30;;;-4.10;99.90;;;;;;4411854;32;20186;-68
2021/12/21 05:42:50;;;;;;;4.43;2.30;;;-4.20;99.90;;;;;;4410688;32;20197;-68
2021/12/21 05:45:18;;;;;;;3.33;2.20;;;-4.20;99.90;;;;;;4425170;32;20519;-69
2021/12/21 05:47:57;;;;;;;3.50;2.43;;;-4.20;99.90;;;;;;4410756;32;20513;-69
2021/12/21 05:50:32;;;;;;;4.00;2.50;;;-4.20;99.90;;;;;;4410512;32;20174;-69
2021/12/21 05:53:26;;;;;;;4.90;2.50;;;-4.30;99.90;;;;;;4392668;32;20187;-69
2021/12/21 05:55:57;;;;;;;4.07;2.23;;;-4.50;99.90;;;;;;4409380;32;20232;-69
2021/12/21 05:58:36;;;;;;;6.23;2.13;;;-4.60;99.90;;;;;;4412204;32;20228;-68
2021/12/21 06:01:35;;;;;;;4.07;2.30;;;-4.60;99.90;;;;;;4365352;32;20238;-68
2021/12/21 06:04:05;;;;;;;4.57;2.20;;;-4.80;99.90;;;;;;4365240;32;20217;-68
2021/12/21 06:06:39;;;;;;;5.77;2.20;;;-4.90;99.90;;;;;;4364456;32;20175;-68
2021/12/21 06:09:13;;;;;;;3.93;2.20;;;-5.00;99.90;;;;;;4364329;32;20183;-69
2021/12/21 06:11:52;;;;;;;2.17;1.90;;;-5.00;99.90;;;;;;4364619;32;20176;-69
2021/12/21 06:14:50;;;;;;;4.53;2.17;;;-4.90;99.90;;;;;;4365001;32;20325;-68
2021/12/21 06:23:06;;;;;;;3.37;1.80;;;-5.10;99.90;;;;;;4375546;32;20226;-68
2021/12/21 06:25:42;;;;;;;2.83;1.87;;;-5.10;99.90;;;;;;4391383;32;20185;-68
2021/12/21 06:28:15;;;;;;;5.63;2.20;;;-5.20;99.90;;;;;;4408266;32;20182;-68
2021/12/21 06:30:43;;;;;;;5.30;2.70;;;-5.20;99.90;;;;;;4407279;32;20202;-68
2021/12/21 06:33:15;;;;;;;4.17;2.20;;;-5.40;99.90;;;;;;4406695;32;20167;-68
2021/12/21 06:35:47;;;;;;;3.97;2.07;;;-5.50;99.90;;;;;;4406817;32;20563;-69
2021/12/21 06:38:23;;;;;;;5.57;1.93;;;-5.50;99.90;;;;;;4408433;32;20174;-68
2021/12/21 06:40:54;;;;;;;10.20;2.80;;;-5.60;99.90;;;;;;4407295;32;20235;-69
2021/12/21 06:43:25;;;;;;;5.40;2.53;;;-5.60;99.90;;;;;;4409672;32;20166;-68
2021/12/21 06:46:20;;;;;;;4.97;2.47;;;-5.60;99.90;;;;;;4409275;32;20451;-69
2021/12/21 06:52:13;;;;;;;3.83;2.30;;;-5.60;99.90;;;;;;4422247;32;20179;-69
2021/12/21 06:54:41;;;;;;;3.20;2.10;;;-5.70;99.90;;;;;;4423480;32;20430;-68
2021/12/21 06:57:20;;;;;;;5.47;2.40;;;-5.70;99.90;;;;;;4437626;32;20155;-68
2021/12/21 06:59:49;;;;;;;3.43;2.20;;;-5.70;99.90;;;;;;4424813;32;20220;-68
2021/12/21 07:02:17;;;;;;;4.17;2.60;;;-5.70;99.90;;;;;;4424524;32;20174;-68
2021/12/21 07:04:46;;;;;;;7.30;2.43;;;-5.70;99.90;;;;;;4425754;32;20209;-69
2021/12/21 07:07:16;;;;;;;3.00;2.20;;;-5.70;99.90;;;;;;4424862;32;20226;-68
2021/12/21 07:09:57;;;;;;;4.10;2.50;;;-5.60;99.90;;;;;;4424758;32;20437;-68
2021/12/21 07:23:56;;;;;;;5.77;2.50;;;-5.60;99.90;;;;;;4421961;32;20182;-69
2021/12/21 07:26:27;;;;;;;5.50;2.50;;;-5.60;99.90;;;;;;4425101;32;20204;-69
2021/12/21 07:29:26;;;;;;;3.40;2.17;;;-5.70;99.90;;;;;;4424344;32;20237;-69
2021/12/21 07:31:59;;;;;;;5.07;2.57;;;-5.60;99.90;;;;;;4425431;32;20205;-68
2021/12/21 07:34:40;;;;;;;4.73;2.53;;;-5.60;99.90;;;;;;4425261;32;20229;-68
2021/12/21 07:37:39;;;;;;;5.97;2.80;;;-5.60;99.90;;;;;;4428561;32;20186;-69
2021/12/21 07:40:09;;;;;;;5.17;2.70;;;-5.60;99.90;;;;;;4425213;32;20209;-69
2021/12/21 07:43:10;;;;;;;5.47;2.80;;;-5.60;99.90;;;;;;4425461;32;20250;-69
2021/12/21 07:45:50;;;;;;;5.83;2.60;;;-5.50;99.90;;;;;;4421952;32;20174;-69
2021/12/21 07:48:23;;;;;;;5.97;2.70;;;-5.50;99.90;;;;;;4413101;32;20225;-68
2021/12/21 07:50:55;;;;;;;7.30;2.83;;;-5.40;99.90;;;;;;4412994;32;20162;-68
2021/12/21 07:53:23;;;;;;;7.73;2.80;;;-5.40;99.90;;;;;;4411005;32;20441;-68
2021/12/21 07:56:01;;;;;;;6.30;2.43;;;-5.30;99.90;;;;;;4412086;32;20241;-68
2021/12/21 07:58:42;;;;;;;5.83;2.30;;;-5.10;99.90;;;;;;4411483;32;20465;-68
2021/12/21 08:01:09;;;;;;;6.53;2.50;;;-4.80;99.90;;;;;;4411036;32;20564;-68
2021/12/21 08:03:38;;;;;;;4.67;2.50;;;-4.40;99.90;;;;;;4411069;32;20225;-68
2021/12/21 08:06:08;;;;;;;4.57;2.37;;;-4.10;99.90;;;;;;4411872;32;20179;-68
2021/12/21 08:08:41;;;;;;;5.50;2.47;;;-3.90;99.90;;;;;;4411037;32;20212;-68
2021/12/21 08:13:43;;;;;;;6.17;2.50;;;-3.40;99.90;;;;;;4411796;32;20175;-68
2021/12/21 08:16:12;;;;;;;6.37;2.70;;;-3.10;99.90;;;;;;4412529;32;20193;-68
2021/12/21 08:18:41;;;;;;;5.23;2.43;;;-2.80;99.90;;;;;;4411558;32;20588;-68
2021/12/21 08:21:17;;;;;;;6.73;2.40;;;-2.40;99.90;;;;;;4413803;32;20208;-68
2021/12/21 08:24:02;;;;;;;6.73;2.57;;;-2.20;99.90;;;;;;4418042;32;20208;-68
2021/12/21 08:26:41;;;;;;;;;;;;;;;;;;;;;
2021/12/21 08:29:30;;;;;;;11.87;2.50;;;-1.60;99.90;;;;;;4411537;32;20171;-68
2021/12/21 08:32:02;;;;;;;4.73;2.50;;;-1.50;99.90;;;;;;4411746;32;20190;-68
2021/12/21 08:34:39;;;;;;;5.10;2.40;;;-1.30;99.90;;;;;;4411101;32;20166;-68
2021/12/21 08:37:07;;;;;;;9.17;2.60;;;-1.10;99.90;;;;;;4411434;32;20181;-68
2021/12/21 08:43:31;;;;;;;4.90;2.20;;;-1.40;99.90;;;;;;4346445;33;20223;-68
2021/12/21 08:46:07;;;;;;;5.77;2.47;;;-1.70;99.90;;;;;;4335257;33;20222;-68
2021/12/21 08:48:47;;;;;;;5.07;2.33;;;-1.80;99.90;;;;;;4348332;33;20185;-68
2021/12/21 08:52:23;;;;;;;5.50;2.30;;;-2.00;99.90;;;;;;4347609;33;20294;-68
2021/12/21 08:55:21;;;;;;;5.60;2.50;;;-2.30;99.90;;;;;;4334503;33;20213;-68
2021/12/21 08:57:54;;;;;;;12.10;2.60;;;-2.50;99.90;;;;;;4335626;33;20503;-68
2021/12/21 09:00:26;;;;;;;8.30;2.80;;;-2.80;99.90;;;;;;4335218;33;20198;-68
2021/12/21 09:03:18;;;;;;;5.67;2.70;;;-3.00;99.90;;;;;;4334723;33;20180;-68
2021/12/21 09:05:59;;;;;;;8.83;2.90;;;-3.40;99.90;;;;;;4347681;33;20164;-68
2021/12/21 09:08:34;;;;;;;9.63;3.10;;;-3.60;99.90;;;;;;4335032;33;20554;-69
2021/12/21 09:11:30;;;;;;;;;;;;;;;;;;;;;
2021/12/21 09:14:06;;;;;;;6.87;3.40;;;-4.00;99.90;;;;;;4334472;33;20590;-68
2021/12/21 09:16:46;;;;;;;6.10;3.00;;;-4.00;99.90;;;;;;4334780;33;20243;-68
2021/12/21 09:19:26;;;;;;;6.47;2.80;;;-4.10;99.90;;;;;;4375729;32;20554;-71
2021/12/21 09:22:52;;;;;;;;;;;;;;;;;;;;;
2021/12/21 09:25:47;;;;;;;3.83;2.43;;;-4.10;99.90;;;;;;4410428;32;20186;-68
2021/12/21 09:28:31;;;;;;;7.23;2.10;;;-4.20;99.90;;;;;;4410444;32;20220;-68
2021/12/21 09:31:08;;;;;;;3.13;2.10;;;-4.30;99.90;;;;;;4411138;32;20241;-69
2021/12/21 09:34:10;;;;;;;;;;;;;;;;;;;;;
2021/12/21 09:40:31;;;;;;;5.50;2.43;;;-4.30;99.90;;;;;;4317991;33;20236;-68
2021/12/21 09:43:17;;;;;;;3.53;1.80;;;-4.20;99.90;;;;;;4317373;33;20216;-69
2021/12/21 09:45:59;;;;;;;2.73;1.60;;;-4.20;99.90;;;;;;4305172;33;20198;-68
2021/12/21 09:49:00;;;;;;;;;;;;;;;;;;;;;
2021/12/21 09:51:34;;;;;;;7.33;1.83;;;-4.30;99.90;;;;;;4317317;33;20250;-68
2021/12/21 09:54:21;;;;;;;9.90;2.73;;;-4.30;99.90;;;;;;4317316;33;20191;-68
2021/12/21 09:57:21;;;;;;;7.53;2.70;;;-4.30;99.90;;;;;;4304864;33;20176;-68
2021/12/21 10:00:49;;;;;;;10.70;3.33;;;-4.30;99.90;;;;;;4312925;33;20212;-68
2021/12/21 10:03:28;;;;;;;8.97;2.93;;;-4.30;99.90;;;;;;4317187;33;20177;-68
2021/12/21 10:06:18;;;;;;;12.87;3.43;;;-4.30;99.90;;;;;;4317021;33;20195;-68
2021/12/21 10:12:51;;;;;;;9.13;3.50;;;-4.20;99.90;;;;;;4268260;33;20459;-68
2021/12/21 10:16:17;;;;;;;6.93;3.80;;;-4.20;99.90;;;;;;4302587;33;20459;-68
2021/12/21 10:18:43;;;;;;;10.73;3.70;;;-4.30;99.90;;;;;;4327884;33;20412;-68
2021/12/21 10:21:15;;;;;;;11.30;3.80;;;-4.30;99.90;;;;;;4333415;33;20328;-68
2021/12/21 10:24:23;;;;;;;6.43;2.93;;;-4.30;99.90;;;;;;4333787;33;20238;-68
2021/12/21 10:27:28;;;;;;;4.10;2.73;;;-4.30;99.90;;;;;;4316946;33;20200;-68
2021/12/21 10:30:02;;;;;;;7.73;3.23;;;-4.30;99.90;;;;;;4318020;33;20475;-68
2021/12/21 10:32:35;;;;;;;5.13;2.63;;;-4.30;99.90;;;;;;4334370;33;20234;-68
2021/12/21 10:35:35;;;;;;;6.37;3.37;;;-4.20;99.90;;;;;;4275494;33;20631;-68
2021/12/21 10:38:11;;;;;;;6.20;2.77;;;-4.20;99.90;;;;;;4275518;33;20440;-69
2021/12/21 10:40:44;;;;;;;8.73;2.80;;;-4.20;99.90;;;;;;4275686;33;20233;-68
2021/12/21 10:46:34;;;;;;;9.40;3.60;;;-4.10;99.90;;;;;;4287635;33;20181;-69
2021/12/21 10:49:38;;;;;;;6.13;3.27;;;-4.00;99.90;;;;;;4328421;33;20210;-68
2021/12/21 10:52:31;;;;;;;11.27;3.63;;;-4.00;99.90;;;;;;4360728;32;20270;-68
2021/12/21 10:55:39;;;;;;;9.10;4.03;;;-3.90;99.90;;;;;;4360039;33;20235;-68
2021/12/21 10:58:27;;;;;;;7.87;3.50;;;-3.80;99.90;;;;;;4360823;33;20184;-68
2021/12/21 11:01:33;;;;;;;11.83;4.33;;;-3.80;99.90;;;;;;4348521;33;20176;-69
2021/12/21 11:04:21;;;;;;;10.43;3.77;;;-3.70;99.90;;;;;;4288186;33;20174;-68
2021/12/21 11:07:52;;;;;;;;;;;;;;;;;;;;;
2021/12/21 11:14:40;;;;;;;;;;;;;;;;;;;;;
2021/12/21 11:17:47;;;;;;;5.90;3.13;;;-3.60;99.90;;;;;;4305690;33;20180;-68
2021/12/21 11:20:48;;;;;;;;;;;;;;;;;;;;;
2021/12/21 11:27:58;;;;;;;8.10;3.80;;;-3.50;99.90;;;;;;4260991;33;20196;-68
2021/12/21 11:30:40;;;;;;;8.33;4.13;;;-3.50;99.90;;;;;;4278681;33;20259;-68
2021/12/21 11:33:55;;;;;;;;;;;;;;;;;;;;;
2021/12/21 11:39:18;;;;;;;9.03;4.10;;;-3.10;99.90;;;;;;4290191;33;20280;-69
2021/12/21 11:41:46;;;;;;;7.93;4.00;;;-2.60;99.90;;;;;;4266130;33;20321;-69
2021/12/21 11:44:35;;;;;;;9.20;3.53;;;-1.90;99.90;;;;;;4283351;33;20228;-69
2021/12/21 11:47:08;;;;;;;10.27;3.57;;;-1.10;98.90;;;;;;4281979;33;20391;-69
2021/12/21 11:50:04;;;;;;;6.83;3.33;;;-0.20;96.20;;;;;;4285832;33;20209;-70
2021/12/21 11:53:13;;;;;;;5.97;3.03;;;0.40;93.00;;;;;;4339824;33;20203;-68
2021/12/21 11:55:47;;;;;;;6.80;2.93;;;0.30;90.10;;;;;;4339810;33;20168;-68
2021/12/21 11:58:23;;;;;;;6.00;2.77;;;0.20;90.10;;;;;;4347436;33;20237;-70
2021/12/21 12:01:05;;;;;;;7.20;3.30;;;-0.20;90.70;;;;;;4374153;32;20576;-69
2021/12/21 12:03:46;;;;;;;8.30;3.37;;;-1.00;93.00;;;;;;4393002;32;20494;-69
2021/12/21 12:06:17;;;;;;;5.87;3.30;;;-1.50;95.70;;;;;;4408413;32;20170;-68
2021/12/21 12:08:50;;;;;;;9.03;3.90;;;-1.80;99.00;;;;;;4407823;32;20524;-69
2021/12/21 12:11:35;;;;;;;5.93;3.30;;;-1.80;99.90;;;;;;4409440;32;20155;-68
2021/12/21 12:14:16;;;;;;;9.23;3.40;;;-1.90;99.90;;;;;;4407494;32;20182;-68
2021/12/21 12:16:50;;;;;;;8.87;3.70;;;-2.00;99.90;;;;;;4397884;32;20560;-69
2021/12/21 12:19:34;;;;;;;7.63;3.33;;;-2.10;99.90;;;;;;4408745;32;20223;-68
2021/12/21 12:22:04;;;;;;;8.60;3.50;;;-2.20;99.90;;;;;;4408112;32;20225;-69
2021/12/21 12:24:56;;;;;;;8.53;3.83;;;-2.30;99.90;;;;;;4392799;32;20182;-68
2021/12/21 12:27:29;;;;;;;9.60;3.83;;;-2.50;99.90;;;;;;4393478;32;20179;-68
2021/12/21 12:30:13;;;;;;;9.00;4.63;;;-2.60;99.90;;;;;;4393896;32;20236;-68
2021/12/21 12:32:55;;;;;;;13.40;4.63;;;-2.50;99.90;;;;;;4393506;32;20183;-69
2021/12/21 12:35:25;;;;;;;9.83;4.90;;;-2.60;99.90;;;;;;4392442;32;20245;-69
2021/12/21 12:37:58;;;;;;;9.10;5.13;;;-2.60;99.90;;;;;;4392641;32;20208;-68
2021/12/21 12:40:29;;;;;;;8.87;5.00;;;-2.60;99.90;;;;;;4404442;32;20202;-68
2021/12/21 12:43:11;;;;;;;8.80;5.30;;;-2.60;99.90;;;;;;4399750;32;20430;-68
2021/12/21 12:45:51;;;;;;;8.23;4.93;;;-2.60;99.90;;;;;;4408338;32;20194;-68
2021/12/21 12:48:25;;;;;;;10.77;5.37;;;-2.60;99.90;;;;;;4410037;32;20488;-68
2021/12/21 12:50:55;;;;;;;9.33;5.30;;;-2.70;99.90;;;;;;4408363;32;20183;-68
2021/12/21 12:53:40;;;;;;;12.37;5.40;;;-2.70;99.90;;;;;;4409254;32;20183;-68
2021/12/21 12:56:10;;;;;;;15.60;5.43;;;-2.60;99.90;;;;;;4411357;32;20242;-69
2021/12/21 12:58:56;;;;;;;14.97;5.50;;;-2.50;99.90;;;;;;4409467;32;20536;-69
2021/12/21 13:01:27;;;;;;;11.77;5.80;;;-2.30;99.90;;;;;;4418128;32;20383;-68
2021/12/21 13:04:24;;;;;;;12.03;5.77;;;-1.90;99.90;;;;;;4418501;32;20536;-69
2021/12/21 13:06:52;;;;;;;10.60;5.60;;;-1.40;99.90;;;;;;4414309;32;20175;-69
2021/12/21 13:09:31;;;;;;;10.77;5.40;;;-0.80;99.90;;;;;;4423185;32;20225;-68
2021/12/21 13:12:00;;;;;;;12.30;5.70;;;-0.50;99.90;;;;;;4423188;32;20552;-69
2021/12/21 13:14:28;;;;;;;13.73;6.13;;;-0.20;99.90;;;;;;4423472;32;20231;-69
2021/12/21 13:16:57;;;;;;;11.90;5.97;;;-0.20;99.90;;;;;;4425141;32;20582;-69
2021/12/21 13:19:26;;;;;;;11.80;6.00;;;-0.10;99.90;;;;;;4421927;32;20227;-69
2021/12/21 13:21:57;;;;;;;13.03;6.27;;;-0.20;99.90;;;;;;4408930;32;20178;-69
2021/12/21 13:24:42;;;;;;;14.03;6.77;;;-0.60;99.90;;;;;;4428809;32;20238;-69
2021/12/21 13:27:13;;;;;;;12.83;6.63;;;-1.00;99.90;;;;;;4414960;32;20179;-69
2021/12/21 13:29:46;;;;;;;18.60;7.20;;;-1.30;99.90;;;;;;4408093;32;20183;-69
2021/12/21 13:32:18;;;;;;;14.63;6.63;;;-1.20;99.90;;;;;;4413360;32;20176;-69
2021/12/21 13:34:49;;;;;;;15.20;6.83;;;-1.30;99.90;;;;;;4411530;32;20195;-68
2021/12/21 13:37:20;;;;;;;12.23;6.40;;;-1.40;99.90;;;;;;4416756;32;20205;-69
2021/12/21 13:39:53;;;;;;;13.73;7.00;;;-1.60;99.90;;;;;;4424707;32;20210;-68
2021/12/21 13:42:23;;;;;;;17.90;7.13;;;-2.00;99.90;;;;;;4423900;32;20162;-68
2021/12/21 13:44:53;;;;;;;12.67;7.07;;;-2.10;99.90;;;;;;4423222;32;20414;-68
2021/12/21 13:47:26;;;;;;;16.63;7.73;;;-2.30;99.90;;;;;;4422772;32;20960;-68
2021/12/21 13:50:08;;;;;;;13.93;6.53;;;-2.30;99.90;;;;;;4422032;32;20580;-68
2021/12/21 13:52:41;;;;;;;14.97;7.20;;;-2.40;99.90;;;;;;4422773;32;20218;-68
2021/12/21 13:55:24;;;;;;;15.20;7.00;;;-2.40;99.90;;;;;;4423037;32;20232;-69
2021/12/21 13:57:54;;;;;;;15.70;6.93;;;-2.50;99.90;;;;;;4434726;32;20223;-69
2021/12/21 14:00:30;;;;;;;13.70;7.57;;;-2.50;99.90;;;;;;4413159;32;20234;-68
2021/12/21 14:03:45;;;;;;;19.70;7.40;;;-2.50;99.90;;;;;;4416748;32;20178;-68
2021/12/21 14:06:13;;;;;;;16.90;7.37;;;-2.60;99.90;;;;;;4409837;32;20186;-68
2021/12/21 14:08:49;;;;;;;15.17;8.03;;;-2.60;99.90;;;;;;4410094;32;20386;-68
2021/12/21 14:11:27;;;;;;;16.43;7.80;;;-2.70;99.90;;;;;;4409919;32;20203;-68
2021/12/21 14:14:00;;;;;;;21.27;8.20;;;-2.70;99.90;;;;;;4410028;32;20178;-69
2021/12/21 14:16:31;;;;;;;16.57;8.20;;;-2.80;99.90;;;;;;4423738;32;20531;-68
2021/12/21 14:19:04;;;;;;;20.57;9.07;;;-2.80;99.90;;;;;;4414510;32;20192;-69
2021/12/21 14:21:41;;;;;;;20.83;8.40;;;-2.90;99.90;;;;;;4412263;32;20162;-69
2021/12/21 14:24:18;;;;;;;18.53;8.30;;;-2.90;99.90;;;;;;4421149;32;20185;-70
2021/12/21 14:27:10;;;;;;;19.10;9.17;;;-2.90;99.90;;;;;;4422350;32;20171;-69
2021/12/21 14:29:46;;;;;;;19.27;9.03;;;-2.90;99.90;;;;;;4424902;32;20178;-70
2021/12/21 14:32:41;;;;;;;18.20;8.90;;;-3.00;99.90;;;;;;4425259;32;20170;-69
2021/12/21 14:35:33;;;;;;;20.10;9.07;;;-3.00;99.90;;;;;;4425078;32;20236;-67
2021/12/21 14:38:31;;;;;;;18.57;8.77;;;-2.90;99.90;;;;;;4435154;32;20205;-68
2021/12/21 14:44:10;;;;;;;20.70;9.33;;;-2.90;99.90;;;;;;4586772;27;20266;-68
2021/12/21 14:47:10;;;;;;;18.90;8.90;;;-2.90;99.90;;;;;;4346115;33;20158;-68
2021/12/21 14:49:56;;;;;;;19.80;8.67;;;-2.90;99.90;;;;;;4346809;33;20169;-68
2021/12/21 14:52:48;;;;;;;22.27;9.60;;;-3.00;99.90;;;;;;4348133;33;20207;-68
2021/12/21 14:55:27;;;;;;;19.60;9.17;;;-2.90;99.90;;;;;;4347974;33;20585;-68
2021/12/21 14:58:00;;;;;;;19.67;9.73;;;-2.90;99.90;;;;;;4346820;33;20199;-68
2021/12/21 15:00:44;;;;;;;20.90;9.60;;;-3.00;99.90;;;;;;4347495;33;20172;-68
2021/12/21 15:03:13;;;;;;;22.77;10.10;;;-3.00;99.90;;;;;;4348913;33;20168;-68
2021/12/21 15:05:41;;;;;;;22.03;10.07;;;-3.00;99.90;;;;;;4349606;33;20194;-68
2021/12/21 15:08:21;;;;;;;21.33;9.27;;;-3.00;99.90;;;;;;4347304;33;20230;-68
2021/12/21 15:10:51;;;;;;;19.93;9.50;;;-3.00;99.90;;;;;;4346935;33;20234;-68
2021/12/21 15:13:21;;;;;;;20.43;9.23;;;-3.00;99.90;;;;;;4347325;33;20172;-68
2021/12/21 15:15:55;;;;;;;21.43;9.50;;;-3.00;99.90;;;;;;4346877;33;20237;-68
2021/12/21 15:18:24;;;;;;;19.87;9.70;;;-3.00;99.90;;;;;;4347551;33;20207;-68
2021/12/21 15:21:10;;;;;;;;;;;;;;;;;;;;;
2021/12/21 15:23:48;;;;;;;22.20;9.63;;;-3.00;99.90;;;;;;4346912;33;20408;-68
2021/12/21 15:27:08;;;;;;;19.07;9.77;;;-3.00;99.90;;;;;;4347233;33;20176;-68
2021/12/21 15:29:40;;;;;;;21.50;9.53;;;-3.00;99.90;;;;;;4347297;33;20173;-68
2021/12/21 15:32:17;;;;;;;22.80;10.03;;;-3.00;99.90;;;;;;4347258;33;20239;-68
2021/12/21 15:34:51;;;;;;;21.80;9.60;;;-3.00;99.90;;;;;;4347438;33;20234;-68
2021/12/21 15:37:22;;;;;;;21.73;9.67;;;-3.00;99.90;;;;;;4346581;33;20173;-68
2021/12/21 15:39:50;;;;;;;22.50;9.67;;;-3.00;99.90;;;;;;4347377;33;20418;-68
2021/12/21 15:42:19;;;;;;;25.10;10.47;;;-3.00;99.90;;;;;;4346511;33;20522;-68
2021/12/21 15:44:54;;;;;;;22.53;10.33;;;-3.00;99.90;;;;;;4347969;33;20164;-68
2021/12/21 15:47:29;;;;;;;23.90;10.10;;;-3.00;99.90;;;;;;4346733;33;20172;-68
2021/12/21 15:49:57;;;;;;;22.37;10.73;;;-2.90;99.90;;;;;;4346839;33;20171;-68
2021/12/21 15:52:28;;;;;;;24.40;10.73;;;-2.90;99.90;;;;;;4348090;33;20155;-68
2021/12/21 15:54:55;;;;;;;24.30;10.67;;;-2.90;99.90;;;;;;4347221;33;20183;-68
2021/12/21 15:57:23;;;;;;;25.47;10.97;;;-2.90;99.90;;;;;;4346895;33;20225;-68
2021/12/21 16:00:02;;;;;;;26.07;11.53;;;-2.90;99.90;;;;;;4347015;33;20183;-68
2021/12/21 16:02:31;;;;;;;25.57;10.87;;;-2.90;99.90;;;;;;4348009;33;20179;-68
2021/12/21 16:05:02;;;;;;;21.97;10.57;;;-2.90;99.90;;;;;;4349268;33;20177;-68
2021/12/21 16:07:32;;;;;;;23.50;10.80;;;-2.90;99.90;;;;;;4350755;32;20132;-68
2021/12/21 16:10:00;;;;;;;19.43;9.87;;;-2.90;99.90;;;;;;4350764;33;20198;-68
2021/12/21 16:12:28;;;;;;;23.73;10.20;;;-2.90;99.90;;;;;;4348675;33;20279;-68
2021/12/21 16:14:55;;;;;;;26.53;10.93;;;-2.90;99.90;;;;;;4349103;33;20176;-68
2021/12/21 16:17:22;;;;;;;23.00;10.23;;;-3.00;99.90;;;;;;4350189;33;20198;-68
2021/12/21 16:19:49;;;;;;;22.87;10.80;;;-2.90;99.90;;;;;;4349833;33;20185;-68
2021/12/21 16:22:17;;;;;;;22.43;10.07;;;-3.00;99.90;;;;;;4349094;33;20165;-68
2021/12/21 16:24:44;;;;;;;26.70;10.10;;;-3.00;99.90;;;;;;4349991;33;20176;-68
2021/12/21 16:27:12;;;;;;;21.97;10.20;;;-3.00;99.90;;;;;;4350131;33;20220;-68
2021/12/21 16:29:40;;;;;;;24.83;10.77;;;-2.90;99.90;;;;;;4349342;33;20191;-68
2021/12/21 16:32:07;;;;;;;22.03;10.70;;;-3.00;99.90;;;;;;4348457;33;20189;-68
2021/12/21 16:34:36;;;;;;;25.60;11.30;;;-3.00;99.90;;;;;;4348507;33;20192;-67
2021/12/21 16:37:05;;;;;;;25.73;11.40;;;-3.00;99.90;;;;;;4350633;32;20132;-68
2021/12/21 16:39:33;;;;;;;23.70;11.10;;;-3.00;99.90;;;;;;4348613;33;20210;-68